Terminal Aerodrome Forecast
Issued by NWS Charleston, WV

Current Version | Previous Version | Graphics & Text | Print | Product List | Glossary On
Versions: 1 2 3 4 5 6 7 8 9 10 11 12 13 14 15 16 17 18 19 20 21 22 23 24 25 26 27 28 29
000
FTUS41 KRLX 260200 AAA
TAFPKB
TAF AMD
KPKB 260224Z 2602/2624 VRB03KT P6SM BKN250
     FM260500 VRB03KT P6SM SCT080
     FM261200 14003KT P6SM BKN045
     FM261700 29009G14KT 5SM SHRA BR OVC025
     FM261800 29010G20KT 4SM SHRA BR OVC015
     FM262000 32011G22KT 3SM SHRA BR OVC015=

USA.gov is the U.S. government's official web portal to all federal, state and local government web resources and services.